Terminal Aerodrome Forecast
Issued by NWS Portland, OR

Current Version | Previous Version | Text Only | Print | Product List | Glossary On
Versions: 1 2 3 4 5 6 7 8 9 10 11 12 13 14 15 16 17 18 19 20 21 22 23 24 25 26 27 28 29 30 31 32 33 34 35 36
000
FTUS46 KPQR 261445 AAA
TAFSLE
TAF AMD
KSLE 261445Z 2615/2712 VRB03KT P6SM VCSH SCT025 BKN040 OVC060
     FM261600 00000KT P6SM VCSH BKN025 OVC035
     FM261900 VRB03KT P6SM SCT025 OVC035
     FM262200 VRB03KT P6SM SCT025 BKN040
     FM270400 16003KT P6SM SCT015 OVC025=

USA.gov is the U.S. government's official web portal to all federal, state and local government web resources and services.